Time;durP1;ratioP1;P1;durP2;ratioP2;P2;SDS_P1;SDS_P2;PMS_P1;PMS_P2;Temp;Humidity;BMP_temperature;BMP_pressure;BME280_temperature;BME280_humidity;BME280_pressure;Samples;Min_cycle;Max_cycle;Signal;HPM_P1;HPM_P2
2024/01/20 00:01:59;;;;;;;;;;;1.70;99.90;;;;;;5050267;28;20356;-76
2024/01/20 00:04:25;;;;;;;;;;;1.70;99.90;;;;;;5048673;28;19920;-76
2024/01/20 00:06:50;;;;;;;;;;;1.70;99.90;;;;;;5032168;28;19935;-75
2024/01/20 00:09:16;;;;;;;;;;;1.70;99.90;;;;;;5051026;28;20044;-75
2024/01/20 00:11:42;;;;;;;;;;;3.50;99.90;;;;;;5067350;28;19959;-75
2024/01/20 00:14:07;;;;;;;;;;;1.80;99.90;;;;;;5068293;28;19921;-75
2024/01/20 00:16:33;;;;;;;;;;;3.30;99.90;;;;;;5048719;28;20056;-75
2024/01/20 00:18:58;;;;;;;;;;;2.10;99.90;;;;;;5049165;28;19966;-75
2024/01/20 00:21:24;;;;;;;;;;;1.60;99.90;;;;;;5046404;28;20338;-75
2024/01/20 00:23:50;;;;;;;;;;;1.60;99.90;;;;;;5031570;28;20350;-76
2024/01/20 00:26:16;;;;;;;;;;;1.60;99.90;;;;;;5046606;28;19924;-76
2024/01/20 00:28:41;;;;;;;;;;;1.50;99.90;;;;;;5051629;28;20003;-76
2024/01/20 00:31:07;;;;;;;;;;;1.50;99.90;;;;;;5049398;28;19970;-76
2024/01/20 00:33:32;;;;;;;;;;;1.50;99.90;;;;;;5064341;28;19920;-76
2024/01/20 00:35:58;;;;;;;;;;;1.50;99.90;;;;;;5050384;28;20379;-75
2024/01/20 00:38:25;;;;;;;;;;;1.90;99.90;;;;;;5050925;28;19970;-76
2024/01/20 00:40:51;;;;;;;;;;;1.50;99.90;;;;;;5045998;28;20015;-76
2024/01/20 00:43:16;;;;;;;;;;;1.40;99.90;;;;;;5036216;28;20074;-76
2024/01/20 00:45:42;;;;;;;;;;;1.40;99.90;;;;;;5049215;28;19930;-75
2024/01/20 00:48:07;;;;;;;;;;;1.40;99.90;;;;;;5044166;28;19928;-76
2024/01/20 00:50:33;;;;;;;;;;;1.40;99.90;;;;;;5064628;28;19928;-76
2024/01/20 00:52:58;;;;;;;;;;;1.40;99.90;;;;;;5065839;28;19935;-76
2024/01/20 00:55:24;;;;;;;;;;;1.40;99.90;;;;;;5050664;28;20071;-76
2024/01/20 00:57:49;;;;;;;;;;;1.50;99.90;;;;;;5067636;28;20498;-76
2024/01/20 01:00:15;;;;;;;;;;;1.50;99.90;;;;;;5049061;28;20016;-76
2024/01/20 01:02:40;;;;;;;;;;;1.40;99.90;;;;;;5038524;28;19974;-76
2024/01/20 01:05:06;;;;;;;;;;;1.90;99.90;;;;;;5048791;28;19920;-76
2024/01/20 01:07:32;;;;;;;;;;;1.50;99.90;;;;;;5056957;28;20414;-75
2024/01/20 01:09:58;;;;;;;;;;;1.50;99.90;;;;;;5049650;28;20015;-76
2024/01/20 01:12:23;;;;;;;;;;;1.80;99.90;;;;;;5062454;28;19920;-76
2024/01/20 01:14:49;;;;;;;;;;;1.30;99.90;;;;;;5066054;28;19920;-76
2024/01/20 01:17:16;;;;;;;;;;;1.50;99.90;;;;;;5043826;28;19920;-74
2024/01/20 01:19:42;;;;;;;;;;;3.40;99.90;;;;;;5048823;28;19920;-76
2024/01/20 01:22:08;;;;;;;;;;;1.50;99.90;;;;;;5049647;28;19920;-75
2024/01/20 01:24:33;;;;;;;;;;;1.50;99.90;;;;;;5050897;28;19931;-76
2024/01/20 01:26:59;;;;;;;;;;;1.50;99.90;;;;;;5069766;28;19920;-75
2024/01/20 01:29:24;;;;;;;;;;;1.50;99.90;;;;;;5049887;28;19931;-76
2024/01/20 01:31:50;;;;;;;;;;;3.20;99.90;;;;;;5049679;28;20065;-76
2024/01/20 01:34:15;;;;;;;;;;;1.60;99.90;;;;;;5053449;28;20442;-75
2024/01/20 01:36:41;;;;;;;;;;;3.50;99.90;;;;;;5053322;28;20397;-75
2024/01/20 01:39:07;;;;;;;;;;;1.60;99.90;;;;;;5053017;28;19921;-75
2024/01/20 01:41:32;;;;;;;;;;;1.50;99.90;;;;;;5049095;28;19925;-76
2024/01/20 01:43:58;;;;;;;;;;;1.60;99.90;;;;;;5059237;28;20578;-76
2024/01/20 01:46:24;;;;;;;;;;;1.60;99.90;;;;;;5056079;28;19967;-75
2024/01/20 01:48:50;;;;;;;;;;;1.60;99.90;;;;;;5043152;28;19970;-76
2024/01/20 01:51:15;;;;;;;;;;;1.50;99.90;;;;;;5045788;28;19921;-76
2024/01/20 01:53:41;;;;;;;;;;;1.50;99.90;;;;;;5048044;28;20365;-76
2024/01/20 01:56:07;;;;;;;;;;;1.60;99.90;;;;;;5033957;28;19925;-76
2024/01/20 01:58:32;;;;;;;;;;;1.50;99.90;;;;;;5049795;28;19921;-76
2024/01/20 02:00:58;;;;;;;;;;;1.60;99.90;;;;;;5048244;28;19974;-75
2024/01/20 02:03:24;;;;;;;;;;;1.60;99.90;;;;;;5048476;28;19920;-75
2024/01/20 02:05:49;;;;;;;;;;;1.50;99.90;;;;;;5050099;28;20384;-76
2024/01/20 02:08:15;;;;;;;;;;;1.60;99.90;;;;;;5053563;28;19921;-76
2024/01/20 02:10:42;;;;;;;;;;;1.60;99.90;;;;;;5050264;28;19924;-76
2024/01/20 02:13:09;;;;;;;;;;;1.50;99.90;;;;;;5084680;28;19928;-76
2024/01/20 02:15:35;;;;;;;;;;;1.60;99.90;;;;;;5046312;28;19974;-76
2024/01/20 02:18:00;;;;;;;;;;;1.80;99.90;;;;;;5044871;28;19920;-76
2024/01/20 02:20:26;;;;;;;;;;;1.40;99.90;;;;;;5052276;28;19921;-76
2024/01/20 02:22:51;;;;;;;;;;;1.60;99.90;;;;;;5052487;28;19920;-76
2024/01/20 02:25:17;;;;;;;;;;;1.60;99.90;;;;;;5053168;28;19917;-76
2024/01/20 02:27:42;;;;;;;;;;;1.60;99.90;;;;;;5044856;28;19964;-76
2024/01/20 02:30:08;;;;;;;;;;;1.70;99.90;;;;;;5051898;28;20316;-76
2024/01/20 02:32:34;;;;;;;;;;;1.60;99.90;;;;;;5053578;28;20556;-76
2024/01/20 02:34:59;;;;;;;;;;;1.60;99.90;;;;;;5047598;28;20023;-76
2024/01/20 02:37:25;;;;;;;;;;;1.60;99.90;;;;;;5049750;28;19927;-76
2024/01/20 02:39:50;;;;;;;;;;;1.60;99.90;;;;;;5049871;28;19920;-76
2024/01/20 02:42:16;;;;;;;;;;;1.60;99.90;;;;;;5070800;28;19920;-76
2024/01/20 02:44:42;;;;;;;;;;;1.80;99.90;;;;;;5047353;28;19928;-76
2024/01/20 02:47:07;;;;;;;;;;;1.70;99.90;;;;;;5040142;28;19920;-76
2024/01/20 02:49:33;;;;;;;;;;;1.60;99.90;;;;;;5046863;28;19917;-75
2024/01/20 02:51:59;;;;;;;;;;;1.60;99.90;;;;;;5044479;28;19927;-75
2024/01/20 02:54:24;;;;;;;;;;;1.90;99.90;;;;;;5050129;28;19920;-75
2024/01/20 02:56:50;;;;;;;;;;;1.60;99.90;;;;;;5051973;28;19924;-74
2024/01/20 02:59:15;;;;;;;;;;;1.60;99.90;;;;;;5052151;28;19970;-75
2024/01/20 03:01:41;;;;;;;;;;;1.70;99.90;;;;;;5051793;28;19974;-75
2024/01/20 03:04:06;;;;;;;;;;;2.10;99.90;;;;;;5039288;28;20300;-75
2024/01/20 03:06:32;;;;;;;;;;;1.60;99.90;;;;;;5048580;28;19925;-75
2024/01/20 03:08:58;;;;;;;;;;;1.50;99.90;;;;;;5049001;28;19917;-75
2024/01/20 03:11:24;;;;;;;;;;;1.50;99.90;;;;;;5051997;28;19979;-76
2024/01/20 03:13:49;;;;;;;;;;;1.50;99.90;;;;;;5052021;28;19973;-75
2024/01/20 03:16:15;;;;;;;;;;;1.50;99.90;;;;;;5048227;28;19959;-75
2024/01/20 03:18:41;;;;;;;;;;;1.50;99.90;;;;;;5049836;28;19927;-76
2024/01/20 03:21:06;;;;;;;;;;;1.50;99.90;;;;;;5049843;28;19921;-75
2024/01/20 03:23:32;;;;;;;;;;;1.50;99.90;;;;;;5052381;28;19973;-76
2024/01/20 03:25:58;;;;;;;;;;;1.50;99.90;;;;;;5050658;28;19929;-76
2024/01/20 03:28:23;;;;;;;;;;;1.70;99.90;;;;;;5060251;28;20347;-75
2024/01/20 03:30:49;;;;;;;;;;;1.40;99.90;;;;;;5043828;28;19925;-75
2024/01/20 03:33:14;;;;;;;;;;;1.40;99.90;;;;;;5052170;28;19927;-75
2024/01/20 03:35:40;;;;;;;;;;;1.40;99.90;;;;;;5051851;28;20074;-75
2024/01/20 03:38:05;;;;;;;;;;;1.40;99.90;;;;;;5051229;28;20423;-75
2024/01/20 03:40:31;;;;;;;;;;;3.20;99.90;;;;;;5050170;28;20394;-74
2024/01/20 03:42:56;;;;;;;;;;;1.40;99.90;;;;;;5045731;28;20379;-75
2024/01/20 03:45:22;;;;;;;;;;;1.30;99.90;;;;;;5049562;28;20403;-76
2024/01/20 03:47:47;;;;;;;;;;;1.30;99.90;;;;;;5047759;28;19920;-76
2024/01/20 03:50:13;;;;;;;;;;;1.30;99.90;;;;;;5046063;28;20039;-76
2024/01/20 03:52:39;;;;;;;;;;;1.30;99.90;;;;;;5051465;28;19920;-76
2024/01/20 03:55:05;;;;;;;;;;;1.20;99.90;;;;;;5049400;28;20407;-76
2024/01/20 03:57:31;;;;;;;;;;;1.20;99.90;;;;;;5052663;28;19974;-76
2024/01/20 03:59:56;;;;;;;;;;;1.20;99.90;;;;;;5051309;28;19920;-76
2024/01/20 04:02:22;;;;;;;;;;;1.10;99.90;;;;;;5066435;28;20375;-76
2024/01/20 04:04:47;;;;;;;;;;;1.10;99.90;;;;;;5068585;28;20014;-76
2024/01/20 04:07:13;;;;;;;;;;;1.10;99.90;;;;;;5037688;28;19920;-75
2024/01/20 04:09:38;;;;;;;;;;;1.10;99.90;;;;;;5046185;28;19920;-76
2024/01/20 04:12:04;;;;;;;;;;;1.20;99.90;;;;;;5047623;28;20392;-76
2024/01/20 04:14:29;;;;;;;;;;;1.20;99.90;;;;;;5050903;28;19924;-75
2024/01/20 04:16:55;;;;;;;;;;;1.10;99.90;;;;;;5049300;28;19927;-76
2024/01/20 04:19:20;;;;;;;;;;;1.10;99.90;;;;;;5051248;28;19920;-76
2024/01/20 04:21:46;;;;;;;;;;;1.80;99.90;;;;;;5042908;28;19927;-76
2024/01/20 04:24:12;;;;;;;;;;;1.10;99.90;;;;;;5041009;28;20015;-75
2024/01/20 04:26:37;;;;;;;;;;;1.10;99.90;;;;;;5070345;28;20023;-76
2024/01/20 04:29:03;;;;;;;;;;;1.50;99.90;;;;;;5051255;28;19935;-75
2024/01/20 04:31:29;;;;;;;;;;;1.10;99.90;;;;;;5043015;28;19997;-76
2024/01/20 04:33:55;;;;;;;;;;;1.00;99.90;;;;;;5067463;28;20007;-76
2024/01/20 04:36:21;;;;;;;;;;;1.00;99.90;;;;;;5047701;28;20364;-76
2024/01/20 04:38:47;;;;;;;;;;;1.00;99.90;;;;;;5048890;28;19927;-76
2024/01/20 04:41:12;;;;;;;;;;;1.00;99.90;;;;;;5049575;28;20027;-76
2024/01/20 04:43:38;;;;;;;;;;;1.00;99.90;;;;;;5048153;28;19927;-76
2024/01/20 04:46:04;;;;;;;;;;;0.90;99.90;;;;;;5060422;28;19920;-76
2024/01/20 04:48:30;;;;;;;;;;;0.90;99.90;;;;;;5050784;28;19920;-75
2024/01/20 04:50:56;;;;;;;;;;;0.90;99.90;;;;;;5040538;28;20261;-76
2024/01/20 04:53:22;;;;;;;;;;;0.90;99.90;;;;;;5044860;28;19917;-75
2024/01/20 04:55:47;;;;;;;;;;;0.90;99.90;;;;;;5038141;28;19920;-76
2024/01/20 04:58:13;;;;;;;;;;;0.80;99.90;;;;;;5041687;28;19966;-76
2024/01/20 05:00:38;;;;;;;;;;;2.70;99.90;;;;;;5050686;28;19920;-76
2024/01/20 05:03:04;;;;;;;;;;;0.70;99.90;;;;;;5038194;28;20312;-75
2024/01/20 05:05:29;;;;;;;;;;;0.70;99.90;;;;;;5048753;28;20379;-75
2024/01/20 05:07:55;;;;;;;;;;;0.70;99.90;;;;;;5038495;28;19943;-75
2024/01/20 05:10:20;;;;;;;;;;;0.70;99.90;;;;;;5047636;28;19920;-75
2024/01/20 05:12:46;;;;;;;;;;;0.70;99.90;;;;;;5049797;28;19928;-76
2024/01/20 05:15:12;;;;;;;;;;;0.70;99.90;;;;;;5064334;28;19920;-75
2024/01/20 05:17:38;;;;;;;;;;;0.90;99.90;;;;;;5064079;28;19920;-75
2024/01/20 05:20:05;;;;;;;;;;;0.60;99.90;;;;;;5073340;28;19931;-75
2024/01/20 05:22:31;;;;;;;;;;;0.50;99.90;;;;;;5039268;28;20451;-75
2024/01/20 05:24:57;;;;;;;;;;;0.50;99.90;;;;;;5038930;28;20281;-75
2024/01/20 05:27:22;;;;;;;;;;;0.50;99.90;;;;;;5045914;28;19927;-76
2024/01/20 05:29:47;;;;;;;;;;;0.50;99.90;;;;;;5049643;28;19924;-75
2024/01/20 05:32:14;;;;;;;;;;;0.50;99.90;;;;;;5050456;28;19920;-76
2024/01/20 05:34:39;;;;;;;;;;;1.80;99.90;;;;;;5050483;28;19926;-76
2024/01/20 05:37:05;;;;;;;;;;;0.40;99.90;;;;;;5053668;28;19920;-76
2024/01/20 05:39:30;;;;;;;;;;;0.40;99.90;;;;;;5039322;28;19920;-75
2024/01/20 05:41:56;;;;;;;;;;;0.40;99.90;;;;;;5048865;28;20038;-75
2024/01/20 05:44:22;;;;;;;;;;;0.40;99.90;;;;;;5043434;28;19943;-75
2024/01/20 05:46:47;;;;;;;;;;;0.40;99.90;;;;;;5058071;28;19921;-75
2024/01/20 05:49:13;;;;;;;;;;;0.40;99.90;;;;;;5049297;28;20027;-75
2024/01/20 05:51:38;;;;;;;;;;;2.20;99.90;;;;;;5047402;28;19951;-75
2024/01/20 05:54:04;;;;;;;;;;;1.60;99.90;;;;;;5039895;28;19927;-75
2024/01/20 05:56:29;;;;;;;;;;;0.30;99.90;;;;;;5065495;28;20378;-77
2024/01/20 05:58:55;;;;;;;;;;;0.30;99.90;;;;;;5038814;28;20447;-76
2024/01/20 06:01:20;;;;;;;;;;;0.30;99.90;;;;;;5062959;28;20725;-76
2024/01/20 06:03:46;;;;;;;;;;;0.30;99.90;;;;;;5047045;28;19952;-77
2024/01/20 06:06:11;;;;;;;;;;;0.30;99.90;;;;;;5032044;28;19936;-77
2024/01/20 06:08:37;;;;;;;;;;;0.30;99.90;;;;;;5047072;28;19927;-78
2024/01/20 06:11:03;;;;;;;;;;;0.20;99.90;;;;;;5045368;28;19929;-77
2024/01/20 06:13:29;;;;;;;;;;;0.30;99.90;;;;;;5049221;28;20326;-77
2024/01/20 06:15:55;;;;;;;;;;;0.20;99.90;;;;;;5043413;28;19959;-77
2024/01/20 06:18:20;;;;;;;;;;;0.30;99.90;;;;;;5067866;28;20017;-74
2024/01/20 06:20:46;;;;;;;;;;;0.20;99.90;;;;;;5052734;28;20040;-74
2024/01/20 06:23:11;;;;;;;;;;;0.20;99.90;;;;;;5051662;28;20393;-75
2024/01/20 06:25:37;;;;;;;;;;;0.20;99.90;;;;;;5051695;28;20037;-75
2024/01/20 06:28:05;;;;;;;;;;;0.20;99.90;;;;;;5069369;28;19920;-74
2024/01/20 06:30:31;;;;;;;;;;;0.20;99.90;;;;;;5052601;28;20011;-75
2024/01/20 06:32:57;;;;;;;;;;;0.20;99.90;;;;;;5050205;28;20003;-75
2024/01/20 06:35:23;;;;;;;;;;;1.00;99.90;;;;;;5054688;28;19917;-75
2024/01/20 06:37:48;;;;;;;;;;;1.00;99.90;;;;;;5037774;28;19920;-75
2024/01/20 06:40:14;;;;;;;;;;;0.20;99.90;;;;;;5050245;28;19928;-75
2024/01/20 06:42:39;;;;;;;;;;;0.20;99.90;;;;;;5048256;28;19925;-75
2024/01/20 06:45:05;;;;;;;;;;;0.20;99.90;;;;;;5069085;28;19979;-75
2024/01/20 06:47:31;;;;;;;;;;;0.20;99.90;;;;;;5051849;28;19924;-75
2024/01/20 06:49:56;;;;;;;;;;;0.20;99.90;;;;;;5050939;28;19990;-75
2024/01/20 06:52:22;;;;;;;;;;;0.20;99.90;;;;;;5046106;28;20809;-75
2024/01/20 06:54:48;;;;;;;;;;;0.20;99.90;;;;;;5046078;28;19920;-75
2024/01/20 06:57:13;;;;;;;;;;;0.10;99.90;;;;;;5039260;28;19928;-75
2024/01/20 06:59:39;;;;;;;;;;;0.20;99.90;;;;;;5048378;28;20083;-75
2024/01/20 07:02:05;;;;;;;;;;;0.10;99.90;;;;;;5046258;28;19935;-75
2024/01/20 07:04:31;;;;;;;;;;;0.10;99.90;;;;;;5045790;28;19920;-75
2024/01/20 07:06:56;;;;;;;;;;;0.10;99.90;;;;;;5049952;28;19938;-76
2024/01/20 07:09:22;;;;;;;;;;;0.10;99.90;;;;;;5066344;28;19920;-74
2024/01/20 07:11:47;;;;;;;;;;;0.10;99.90;;;;;;5049040;28;19950;-75
2024/01/20 07:14:13;;;;;;;;;;;0.30;99.90;;;;;;5050870;28;19943;-75
2024/01/20 07:16:38;;;;;;;;;;;0.10;99.90;;;;;;5052458;28;19943;-74
2024/01/20 07:19:04;;;;;;;;;;;0.10;99.90;;;;;;5046810;28;20281;-74
2024/01/20 07:21:29;;;;;;;;;;;0.10;99.90;;;;;;5069547;28;19977;-74
2024/01/20 07:23:55;;;;;;;;;;;0.10;99.90;;;;;;5045506;28;20327;-75
2024/01/20 07:26:20;;;;;;;;;;;0.10;99.90;;;;;;5047316;28;19924;-76
2024/01/20 07:28:46;;;;;;;;;;;0.10;99.90;;;;;;5065351;28;20357;-74
2024/01/20 07:31:12;;;;;;;;;;;0.10;99.90;;;;;;5064900;28;19927;-75
2024/01/20 07:33:38;;;;;;;;;;;0.30;99.90;;;;;;5047137;28;19960;-75
2024/01/20 07:36:05;;;;;;;;;;;0.10;99.90;;;;;;5044334;28;20118;-75
2024/01/20 07:38:31;;;;;;;;;;;0.20;99.90;;;;;;5047360;28;19927;-74
2024/01/20 07:40:59;;;;;;;;;;;0.20;99.90;;;;;;5059644;28;20162;-75
2024/01/20 07:43:24;;;;;;;;;;;0.20;99.90;;;;;;5052822;28;19927;-75
2024/01/20 07:45:53;;;;;;;;;;;1.00;99.90;;;;;;5047508;28;19925;-75
2024/01/20 07:48:22;;;;;;;;;;;0.20;99.90;;;;;;5061168;28;19924;-75
2024/01/20 07:50:48;;;;;;;;;;;0.20;99.90;;;;;;5046618;28;19920;-75
2024/01/20 07:53:14;;;;;;;;;;;0.20;99.90;;;;;;5048288;28;20675;-75
2024/01/20 07:55:39;;;;;;;;;;;0.20;99.90;;;;;;5042493;28;19924;-75
2024/01/20 07:58:05;;;;;;;;;;;0.20;99.90;;;;;;5048354;28;19928;-74
2024/01/20 08:00:30;;;;;;;;;;;0.30;99.90;;;;;;5065638;28;19924;-75
2024/01/20 08:02:56;;;;;;;;;;;0.30;99.90;;;;;;5065329;28;19939;-75
2024/01/20 08:05:21;;;;;;;;;;;0.30;99.90;;;;;;5039552;28;20367;-75
2024/01/20 08:07:47;;;;;;;;;;;0.40;99.90;;;;;;5049495;28;20019;-76
2024/01/20 08:10:12;;;;;;;;;;;1.60;99.90;;;;;;5047006;28;19936;-76
2024/01/20 08:12:38;;;;;;;;;;;0.40;99.90;;;;;;5058133;28;20026;-76
2024/01/20 08:15:04;;;;;;;;;;;0.50;99.90;;;;;;5062573;28;20314;-75
2024/01/20 08:17:30;;;;;;;;;;;0.50;99.90;;;;;;5046341;28;20580;-75
2024/01/20 08:19:56;;;;;;;;;;;0.70;99.90;;;;;;5041543;28;19925;-75
2024/01/20 08:22:21;;;;;;;;;;;0.60;99.90;;;;;;5051740;28;19928;-75
2024/01/20 08:24:46;;;;;;;;;;;0.60;99.90;;;;;;5049603;28;19920;-76
2024/01/20 08:27:12;;;;;;;;;;;0.60;99.90;;;;;;5068687;28;19920;-76
2024/01/20 08:29:37;;;;;;;;;;;0.70;99.90;;;;;;5060927;28;20395;-75
2024/01/20 08:32:03;;;;;;;;;;;0.70;99.90;;;;;;5042715;28;19927;-75
2024/01/20 08:34:29;;;;;;;;;;;0.70;99.90;;;;;;5039815;28;19927;-76
2024/01/20 08:36:54;;;;;;;;;;;0.80;99.90;;;;;;5040312;28;19921;-75
2024/01/20 08:39:20;;;;;;;;;;;0.80;99.90;;;;;;5049616;28;19924;-75
2024/01/20 08:41:46;;;;;;;;;;;2.10;99.90;;;;;;5047592;28;19920;-75
2024/01/20 08:44:12;;;;;;;;;;;2.10;99.90;;;;;;5061235;28;19916;-75
2024/01/20 08:46:37;;;;;;;;;;;1.80;99.90;;;;;;5056890;28;19960;-76
2024/01/20 08:49:03;;;;;;;;;;;0.90;99.90;;;;;;5060056;28;19961;-76
2024/01/20 08:51:28;;;;;;;;;;;1.80;99.90;;;;;;5039341;28;19948;-75
2024/01/20 08:53:54;;;;;;;;;;;1.10;99.90;;;;;;5041581;28;19920;-76
2024/01/20 08:56:20;;;;;;;;;;;1.00;99.90;;;;;;5037730;28;19920;-76
2024/01/20 08:58:45;;;;;;;;;;;2.30;99.90;;;;;;5049536;28;20015;-76
2024/01/20 09:01:11;;;;;;;;;;;1.00;99.90;;;;;;5050104;28;19927;-77
2024/01/20 09:03:36;;;;;;;;;;;1.00;99.90;;;;;;5039961;28;19925;-77
2024/01/20 09:06:02;;;;;;;;;;;1.00;99.90;;;;;;5044318;28;19920;-76
2024/01/20 09:08:27;;;;;;;;;;;1.00;99.90;;;;;;5049885;28;20326;-76
2024/01/20 09:10:53;;;;;;;;;;;1.10;99.90;;;;;;5067436;28;19946;-77
2024/01/20 09:13:18;;;;;;;;;;;-0.40;99.90;;;;;;5046790;28;20021;-77
2024/01/20 09:15:44;;;;;;;;;;;1.10;99.90;;;;;;5039583;28;19960;-76
2024/01/20 09:18:11;;;;;;;;;;;1.10;99.90;;;;;;5048654;28;19931;-76
2024/01/20 09:20:37;;;;;;;;;;;1.10;99.90;;;;;;5049872;28;20128;-77
2024/01/20 09:23:03;;;;;;;;;;;1.60;99.90;;;;;;5062594;28;19920;-76
2024/01/20 09:25:29;;;;;;;;;;;1.20;99.90;;;;;;5044581;28;19928;-76
2024/01/20 09:27:54;;;;;;;;;;;1.20;99.90;;;;;;5040135;28;20933;-75
2024/01/20 09:30:20;;;;;;;;;;;1.20;99.90;;;;;;5043315;28;20311;-76
2024/01/20 09:32:46;;;;;;;;;;;1.70;99.90;;;;;;5038873;28;19920;-76
2024/01/20 09:35:12;;;;;;;;;;;1.20;99.90;;;;;;5051257;28;19916;-77
2024/01/20 09:37:37;;;;;;;;;;;1.20;99.90;;;;;;5051093;28;20019;-77
2024/01/20 09:40:05;;;;;;;;;;;1.30;99.90;;;;;;5045899;28;19924;-75
2024/01/20 09:42:30;;;;;;;;;;;1.30;99.90;;;;;;5041771;28;19920;-75
2024/01/20 09:44:56;;;;;;;;;;;1.30;99.90;;;;;;5060234;28;19927;-77
2024/01/20 09:47:22;;;;;;;;;;;1.30;99.90;;;;;;5047383;28;19924;-77
2024/01/20 09:49:47;;;;;;;;;;;1.30;99.90;;;;;;5049515;28;20284;-77
2024/01/20 09:52:22;;;;;;;;;;;2.00;99.90;;;;;;5045283;28;20299;-77
2024/01/20 09:54:56;;;;;;;;;;;1.40;99.90;;;;;;5045707;28;19927;-78
2024/01/20 09:57:23;;;;;;;;;;;1.40;99.90;;;;;;5050880;28;19921;-76
2024/01/20 09:59:48;;;;;;;;;;;1.40;99.90;;;;;;5068160;28;19927;-76
2024/01/20 10:02:15;;;;;;;;;;;1.50;99.90;;;;;;5048344;28;20311;-78
2024/01/20 10:04:42;;;;;;;;;;;1.50;99.90;;;;;;5047899;28;19970;-77
2024/01/20 10:07:07;;;;;;;;;;;1.50;99.90;;;;;;5047003;28;20015;-76
2024/01/20 10:09:33;;;;;;;;;;;1.60;99.90;;;;;;5065087;28;20382;-77
2024/01/20 10:11:59;;;;;;;;;;;1.60;99.90;;;;;;5050355;28;19928;-77
2024/01/20 10:14:25;;;;;;;;;;;3.10;99.90;;;;;;5045573;28;19924;-75
2024/01/20 10:16:50;;;;;;;;;;;1.70;99.90;;;;;;5050985;28;19935;-75
2024/01/20 10:19:16;;;;;;;;;;;1.70;99.90;;;;;;5051163;28;19920;-76
2024/01/20 10:21:42;;;;;;;;;;;1.80;99.90;;;;;;5052937;28;19920;-76
2024/01/20 10:24:08;;;;;;;;;;;1.80;99.90;;;;;;5048262;28;20016;-76
2024/01/20 10:26:43;;;;;;;;;;;1.80;99.90;;;;;;5051177;28;19920;-76
2024/01/20 10:29:09;;;;;;;;;;;1.80;99.90;;;;;;5048099;28;19924;-75
2024/01/20 10:31:35;;;;;;;;;;;2.40;99.90;;;;;;5071173;28;20337;-76
2024/01/20 10:34:01;;;;;;;;;;;1.90;99.90;;;;;;5051788;28;19920;-75
2024/01/20 10:36:27;;;;;;;;;;;2.60;99.90;;;;;;5048827;28;20372;-74
2024/01/20 10:38:53;;;;;;;;;;;1.90;99.90;;;;;;5070001;28;19920;-74
2024/01/20 10:41:22;;;;;;;;;;;1.90;99.90;;;;;;5050831;28;19988;-75
2024/01/20 10:43:52;;;;;;;;;;;1.90;99.90;;;;;;5066084;28;19924;-75
2024/01/20 10:46:22;;;;;;;;;;;2.50;99.90;;;;;;5050645;28;19927;-75
2024/01/20 10:48:49;;;;;;;;;;;2.00;99.90;;;;;;5058021;28;19924;-75
2024/01/20 10:51:18;;;;;;;;;;;2.00;99.90;;;;;;5049608;28;19927;-75
2024/01/20 10:53:46;;;;;;;;;;;2.00;99.90;;;;;;5051692;28;19920;-75
2024/01/20 10:56:12;;;;;;;;;;;2.00;99.90;;;;;;5047661;28;20015;-75
2024/01/20 10:58:43;;;;;;;;;;;2.00;99.90;;;;;;5061668;28;20059;-75
2024/01/20 11:01:09;;;;;;;;;;;2.00;99.90;;;;;;5065507;28;19924;-76
2024/01/20 11:03:35;;;;;;;;;;;2.00;99.90;;;;;;5051078;28;19927;-76
2024/01/20 11:06:01;;;;;;;;;;;2.10;99.90;;;;;;5049749;28;20048;-76
2024/01/20 11:08:26;;;;;;;;;;;2.20;99.90;;;;;;5042709;28;19943;-76
2024/01/20 11:10:53;;;;;;;;;;;2.10;99.90;;;;;;5049492;28;19920;-75
2024/01/20 11:13:23;;;;;;;;;;;2.10;99.90;;;;;;5047300;28;20061;-77
2024/01/20 11:15:49;;;;;;;;;;;2.50;99.90;;;;;;5047555;28;20299;-76
2024/01/20 11:18:18;;;;;;;;;;;2.10;99.90;;;;;;5045641;28;20369;-76
2024/01/20 11:20:55;;;;;;;;;;;2.10;99.90;;;;;;5049858;28;19928;-76
2024/01/20 11:23:21;;;;;;;;;;;2.10;99.90;;;;;;5045982;28;22046;-75
2024/01/20 11:25:46;;;;;;;;;;;2.10;99.90;;;;;;5047509;28;19924;-76
2024/01/20 11:28:21;;;;;;;;;;;2.10;99.90;;;;;;5046470;28;19921;-75
2024/01/20 11:30:47;;;;;;;;;;;2.20;99.90;;;;;;5038266;28;19927;-77
2024/01/20 11:33:13;;;;;;;;;;;2.20;99.90;;;;;;5041943;28;19928;-76
2024/01/20 11:35:38;;;;;;;;;;;2.20;99.90;;;;;;5037163;28;20488;-77
2024/01/20 11:38:04;;;;;;;;;;;3.10;99.90;;;;;;5041431;28;19925;-78
2024/01/20 11:40:30;;;;;;;;;;;2.20;99.90;;;;;;5048212;28;19928;-75
2024/01/20 11:43:06;;;;;;;;;;;2.80;99.90;;;;;;5044432;28;19966;-77
2024/01/20 11:45:31;;;;;;;;;;;2.20;99.90;;;;;;5049017;28;20284;-76
2024/01/20 11:47:57;;;;;;;;;;;2.20;99.90;;;;;;5041944;28;19932;-78
2024/01/20 11:50:22;;;;;;;;;;;2.30;99.90;;;;;;5047534;28;19924;-77
2024/01/20 11:52:48;;;;;;;;;;;3.60;99.90;;;;;;5044919;28;19951;-77
2024/01/20 11:55:13;;;;;;;;;;;3.40;99.90;;;;;;5042903;28;19920;-78
2024/01/20 11:57:39;;;;;;;;;;;2.30;99.90;;;;;;5040257;28;19932;-78
2024/01/20 12:00:05;;;;;;;;;;;2.30;99.90;;;;;;5043984;28;19925;-79
2024/01/20 12:02:30;;;;;;;;;;;2.30;99.90;;;;;;5045163;28;19939;-78
2024/01/20 12:04:56;;;;;;;;;;;2.30;99.90;;;;;;5048389;28;19927;-78
2024/01/20 12:07:22;;;;;;;;;;;2.30;99.90;;;;;;5043103;28;19996;-77
2024/01/20 12:09:47;;;;;;;;;;;2.30;99.90;;;;;;5043905;28;19975;-77
2024/01/20 12:12:14;;;;;;;;;;;2.30;99.90;;;;;;5036645;28;19927;-78
2024/01/20 12:14:40;;;;;;;;;;;2.80;99.90;;;;;;5040629;28;20285;-78
2024/01/20 12:17:06;;;;;;;;;;;2.40;99.90;;;;;;5046539;28;20288;-76
2024/01/20 12:19:32;;;;;;;;;;;2.40;99.90;;;;;;5051928;28;19926;-79
2024/01/20 12:22:02;;;;;;;;;;;2.40;99.90;;;;;;5043531;28;20273;-81
2024/01/20 12:24:28;;;;;;;;;;;2.40;99.90;;;;;;5050949;28;19932;-79
2024/01/20 12:26:53;;;;;;;;;;;2.40;99.90;;;;;;5068696;28;19973;-78
2024/01/20 12:29:19;;;;;;;;;;;2.50;99.90;;;;;;5047355;28;19928;-77
2024/01/20 12:31:44;;;;;;;;;;;2.50;99.90;;;;;;5045259;28;19946;-75
2024/01/20 12:34:10;;;;;;;;;;;2.60;99.90;;;;;;5042857;28;20341;-78
2024/01/20 12:36:35;;;;;;;;;;;2.60;99.90;;;;;;5037744;28;19967;-77
2024/01/20 12:39:01;;;;;;;;;;;2.60;99.90;;;;;;5046848;28;20014;-79
2024/01/20 12:41:26;;;;;;;;;;;2.70;99.90;;;;;;5058576;28;20019;-76
2024/01/20 12:43:52;;;;;;;;;;;2.70;99.90;;;;;;5046796;28;20571;-76
2024/01/20 12:46:18;;;;;;;;;;;3.20;99.90;;;;;;5046528;28;19920;-78
2024/01/20 12:48:44;;;;;;;;;;;2.80;99.90;;;;;;5048129;28;19974;-78
2024/01/20 12:51:10;;;;;;;;;;;2.80;99.90;;;;;;5065814;28;20384;-77
2024/01/20 12:53:36;;;;;;;;;;;2.80;99.90;;;;;;5039498;28;19956;-78
2024/01/20 12:56:02;;;;;;;;;;;2.80;99.90;;;;;;5047292;28;20398;-77
2024/01/20 12:58:30;;;;;;;;;;;2.80;99.90;;;;;;5046204;28;19920;-78
2024/01/20 13:00:56;;;;;;;;;;;2.80;99.90;;;;;;5050141;28;19920;-79
2024/01/20 13:03:21;;;;;;;;;;;2.90;99.90;;;;;;5063128;28;19935;-79
2024/01/20 13:05:47;;;;;;;;;;;3.00;99.90;;;;;;5050448;28;20014;-77
2024/01/20 13:08:12;;;;;;;;;;;3.00;99.90;;;;;;5066948;28;20300;-77
2024/01/20 13:10:38;;;;;;;;;;;3.10;99.90;;;;;;5061250;28;19920;-79
2024/01/20 13:13:03;;;;;;;;;;;3.20;99.90;;;;;;5045052;28;19924;-77
2024/01/20 13:15:29;;;;;;;;;;;3.20;99.90;;;;;;5043823;28;19924;-76
2024/01/20 13:17:55;;;;;;;;;;;3.30;99.90;;;;;;5038128;28;20031;-76
2024/01/20 13:20:20;;;;;;;;;;;3.40;99.90;;;;;;5035502;28;20335;-79
2024/01/20 13:22:46;;;;;;;;;;;4.70;99.90;;;;;;5042197;28;19928;-77
2024/01/20 13:25:12;;;;;;;;;;;3.40;99.90;;;;;;5047235;28;19920;-76
2024/01/20 13:27:37;;;;;;;;;;;3.60;99.90;;;;;;5048327;28;19979;-76
2024/01/20 13:30:04;;;;;;;;;;;3.40;99.90;;;;;;5043042;28;19925;-76
2024/01/20 13:32:29;;;;;;;;;;;3.30;99.90;;;;;;5038062;28;19951;-77
2024/01/20 13:34:55;;;;;;;;;;;3.40;99.90;;;;;;5048438;28;20467;-77
2024/01/20 13:37:20;;;;;;;;;;;3.40;99.90;;;;;;5043744;28;20315;-76
2024/01/20 13:39:46;;;;;;;;;;;3.30;99.90;;;;;;5038999;28;20024;-77
2024/01/20 13:42:11;;;;;;;;;;;4.00;99.90;;;;;;5046626;28;20043;-76
2024/01/20 13:44:37;;;;;;;;;;;4.00;99.90;;;;;;5044240;28;19959;-74
2024/01/20 13:47:06;;;;;;;;;;;4.30;99.90;;;;;;5044189;28;19929;-79
2024/01/20 13:49:31;;;;;;;;;;;3.30;99.90;;;;;;5044362;28;20331;-73
2024/01/20 13:51:57;;;;;;;;;;;3.50;99.90;;;;;;5051591;28;19925;-78
2024/01/20 13:54:23;;;;;;;;;;;3.30;99.90;;;;;;5048034;28;20487;-77
2024/01/20 13:56:48;;;;;;;;;;;3.50;99.90;;;;;;5041849;28;19953;-76
2024/01/20 13:59:14;;;;;;;;;;;3.50;99.90;;;;;;5038292;28;20003;-77
2024/01/20 14:01:41;;;;;;;;;;;3.40;99.90;;;;;;5045810;28;19925;-78
2024/01/20 14:04:07;;;;;;;;;;;3.40;99.90;;;;;;5047674;28;19952;-75
2024/01/20 14:06:32;;;;;;;;;;;3.50;99.90;;;;;;5044050;28;20385;-73
2024/01/20 14:08:58;;;;;;;;;;;4.20;99.90;;;;;;5042432;28;19917;-73
2024/01/20 14:11:23;;;;;;;;;;;3.60;99.90;;;;;;5041980;28;19920;-73
2024/01/20 14:13:49;;;;;;;;;;;3.60;99.90;;;;;;5040234;28;19924;-76
2024/01/20 14:16:16;;;;;;;;;;;3.60;99.90;;;;;;5045625;28;19916;-76
2024/01/20 14:18:41;;;;;;;;;;;3.50;99.90;;;;;;5044953;28;20398;-76
2024/01/20 14:21:07;;;;;;;;;;;3.50;99.90;;;;;;5038442;28;19944;-75
2024/01/20 14:23:32;;;;;;;;;;;3.50;99.90;;;;;;5040347;28;19975;-75